Terminal Aerodrome Forecast
Issued by NWS

Home | Current Version | Previous Version | Graphics & Text | Print | Product List | Glossary On
Versions: 1 2 3 4 5 6 7 8 9 10 11 12 13 14 15 16 17 18 19 20 21 22 23 24 25
000
FTUS43 KABR 010500 AAB
TAFATY
TAF AMD
KATY 010514Z 0105/0124 34010KT P6SM BKN026
     FM010700 27010KT P6SM SCT250
     FM011900 29015KT P6SM BKN040=

USA.gov is the U.S. government's official web portal to all federal, state and local government web resources and services.